Thargomindah, Australia
Current Conditions -  °F | °C
As of 4:00 AM on Tuesday 21 Oct 2014 (Local Time) from YBCV Reporting Station
Clear Clear  
Wind Chill: 63°   Ceiling: Unl
Heat Index: 63°   Visibility: 6mi
Dew Point: 46°   Wind: 3mph
Humidity: 55%   Direction: 30°NNE
Pressure: 30.12"   Gusts: NA
Location:  28°S, 143.82°E
Report Text: YBCV 201800Z AUTO 03003KT 9999 // NCD 17/08 Q1020
Loading
Personal Weather Stations






























Interactive Weather Map
Tropical Storm Tracking
New forecast layout! Learn more

10-Day Weather Forecast

Advertisements
Track Severe Weather on mobile